createdAt,value
2023-05-06T00:00:46.210Z,100824.00
2023-05-06T00:01:48.338Z,100828.50
2023-05-06T00:02:50.722Z,100823.78
2023-05-06T00:03:53.237Z,100827.72
2023-05-06T00:04:55.884Z,100828.06
2023-05-06T00:05:58.169Z,100821.97
2023-05-06T00:07:00.364Z,100815.84
2023-05-06T00:08:02.535Z,100814.59
2023-05-06T00:09:05.076Z,100807.34
2023-05-06T00:10:07.729Z,100806.38
2023-05-06T00:11:09.952Z,100800.06
2023-05-06T00:12:12.380Z,100799.81
2023-05-06T00:13:16.103Z,100805.22
2023-05-06T00:14:18.602Z,100808.53
2023-05-06T00:15:21.060Z,100797.19
2023-05-06T00:16:27.491Z,100805.81
2023-05-06T00:17:29.725Z,100803.06
2023-05-06T00:18:32.137Z,100813.41
2023-05-06T00:19:34.535Z,100807.44
2023-05-06T00:20:36.973Z,100802.53
2023-05-06T00:21:39.392Z,100803.94
2023-05-06T00:22:41.582Z,100805.72
2023-05-06T00:23:43.890Z,100802.72
2023-05-06T00:24:46.113Z,100795.94
2023-05-06T00:25:48.610Z,100793.84
2023-05-06T00:26:50.853Z,100797.84
2023-05-06T00:27:53.521Z,100791.97
2023-05-06T00:28:56.090Z,100785.94
2023-05-06T00:29:58.601Z,100784.13
2023-05-06T00:31:00.983Z,100787.06
2023-05-06T00:32:03.424Z,100786.06
2023-05-06T00:33:05.792Z,100780.31
2023-05-06T00:34:09.079Z,100789.88
2023-05-06T00:35:12.047Z,100786.59
2023-05-06T00:36:14.675Z,100783.88
2023-05-06T00:37:16.924Z,100780.94
2023-05-06T00:38:22.114Z,100784.75
2023-05-06T00:39:25.423Z,100780.72
2023-05-06T00:40:27.777Z,100779.84
2023-05-06T00:41:33.788Z,100778.59
2023-05-06T00:42:36.343Z,100790.06
2023-05-06T00:43:38.601Z,100779.88
2023-05-06T00:44:41.028Z,100782.72
2023-05-06T00:45:43.508Z,100783.38
2023-05-06T00:46:45.910Z,100777.25
2023-05-06T00:47:48.663Z,100774.94
2023-05-06T00:48:51.493Z,100774.22
2023-05-06T00:49:54.302Z,100779.59
2023-05-06T00:50:56.578Z,100788.19
2023-05-06T00:51:59.233Z,100782.44
2023-05-06T00:53:04.327Z,100779.91
2023-05-06T00:54:06.785Z,100785.53
2023-05-06T00:55:09.857Z,100783.66
2023-05-06T00:56:12.844Z,100783.91
2023-05-06T00:57:15.105Z,100782.44
2023-05-06T00:58:19.933Z,100781.63
2023-05-06T00:59:23.400Z,100778.44
2023-05-06T01:00:26.335Z,100779.81
2023-05-06T01:01:31.121Z,100784.31
2023-05-06T01:02:51.861Z,100782.59
2023-05-06T01:03:57.623Z,100784.53
2023-05-06T01:05:00.901Z,100779.91
2023-05-06T01:06:17.001Z,100779.22
2023-05-06T01:07:57.168Z,100769.56
2023-05-06T01:09:19.683Z,100767.47
2023-05-06T01:10:40.282Z,100772.06
2023-05-06T01:12:03.910Z,100772.53
2023-05-06T01:13:42.831Z,100762.75
2023-05-06T01:14:57.419Z,100767.47
2023-05-06T01:16:01.428Z,100762.47
2023-05-06T01:17:07.967Z,100755.97
2023-05-06T01:18:13.662Z,100755.91
2023-05-06T01:19:34.804Z,100763.44
2023-05-06T01:20:39.292Z,100757.44
2023-05-06T01:21:43.976Z,100753.13
2023-05-06T01:22:46.400Z,100755.81
2023-05-06T01:23:57.953Z,100758.16
2023-05-06T01:25:01.660Z,100753.00
2023-05-06T01:26:04.548Z,100754.63
2023-05-06T01:27:07.676Z,100754.13
2023-05-06T01:28:11.699Z,100756.13
2023-05-06T01:29:14.026Z,100751.31
2023-05-06T01:30:21.523Z,100758.16
2023-05-06T01:31:27.633Z,100754.00
2023-05-06T01:33:08.881Z,100758.03
2023-05-06T01:34:14.066Z,100756.84
2023-05-06T01:35:35.365Z,100754.16
2023-05-06T01:36:46.379Z,100753.91
2023-05-06T01:38:08.658Z,100748.28
2023-05-06T01:39:24.392Z,100742.19
2023-05-06T01:40:28.452Z,100739.91
2023-05-06T01:41:33.487Z,100743.41
2023-05-06T01:42:37.715Z,100739.56
2023-05-06T01:43:44.218Z,100733.13
2023-05-06T01:44:49.018Z,100738.06
2023-05-06T01:45:54.130Z,100725.66
2023-05-06T01:46:57.280Z,100730.06
2023-05-06T01:47:59.694Z,100730.66
2023-05-06T01:49:06.110Z,100722.22
2023-05-06T01:50:08.673Z,100722.22
2023-05-06T01:51:11.181Z,100721.81
2023-05-06T01:52:15.954Z,100723.06
2023-05-06T01:53:18.296Z,100721.56
2023-05-06T01:54:20.525Z,100727.75
2023-05-06T01:55:22.703Z,100726.34
2023-05-06T01:56:27.054Z,100730.84
2023-05-06T01:57:29.488Z,100725.22
2023-05-06T01:58:31.756Z,100723.13
2023-05-06T01:59:34.123Z,100728.59
2023-05-06T02:00:38.400Z,100725.59
2023-05-06T02:01:40.848Z,100716.06
2023-05-06T02:02:43.573Z,100723.16
2023-05-06T02:03:45.981Z,100726.28
2023-05-06T02:04:48.302Z,100724.44
2023-05-06T02:05:50.721Z,100723.84
2023-05-06T02:06:52.943Z,100723.72
2023-05-06T02:07:55.829Z,100722.03
2023-05-06T02:08:58.126Z,100716.97
2023-05-06T02:10:01.517Z,100725.88
2023-05-06T02:11:03.970Z,100723.91
2023-05-06T02:12:07.112Z,100720.13
2023-05-06T02:13:10.802Z,100717.13
2023-05-06T02:14:13.711Z,100715.56
2023-05-06T02:15:16.143Z,100724.44
2023-05-06T02:16:19.310Z,100730.75
2023-05-06T02:17:22.638Z,100718.13
2023-05-06T02:18:25.422Z,100727.38
2023-05-06T02:19:27.823Z,100726.31
2023-05-06T02:20:30.253Z,100715.72
2023-05-06T02:21:33.020Z,100724.38
2023-05-06T02:22:36.153Z,100726.41
2023-05-06T02:23:38.393Z,100722.53
2023-05-06T02:24:40.579Z,100720.56
2023-05-06T02:25:43.487Z,100725.50
2023-05-06T02:26:45.652Z,100723.91
2023-05-06T02:27:47.862Z,100726.31
2023-05-06T02:28:52.226Z,100725.69
2023-05-06T02:29:54.483Z,100723.66
2023-05-06T02:30:58.382Z,100722.34
2023-05-06T02:32:01.038Z,100724.69
2023-05-06T02:33:03.525Z,100717.81
2023-05-06T02:34:06.020Z,100714.94
2023-05-06T02:35:09.150Z,100714.53
2023-05-06T02:36:11.792Z,100706.31
2023-05-06T02:37:14.178Z,100707.06
2023-05-06T02:38:16.378Z,100710.94
2023-05-06T02:39:18.595Z,100718.31
2023-05-06T02:40:21.030Z,100714.13
2023-05-06T02:41:23.426Z,100715.72
2023-05-06T02:42:27.774Z,100710.00
2023-05-06T02:43:30.298Z,100709.53
2023-05-06T02:44:33.843Z,100703.59
2023-05-06T02:45:36.189Z,100704.31
2023-05-06T02:46:38.591Z,100706.50
2023-05-06T02:47:41.181Z,100698.91
2023-05-06T02:48:43.519Z,100698.22
2023-05-06T02:49:45.769Z,100699.31
2023-05-06T02:50:48.139Z,100694.19
2023-05-06T02:51:50.359Z,100695.72
2023-05-06T02:52:53.010Z,100687.53
2023-05-06T02:53:55.305Z,100690.56
2023-05-06T02:54:57.541Z,100693.59
2023-05-06T02:55:59.755Z,100704.66
2023-05-06T02:57:02.532Z,100695.91
2023-05-06T02:58:05.045Z,100700.00
2023-05-06T02:59:07.380Z,100702.94
2023-05-06T03:00:13.085Z,100700.31
2023-05-06T03:01:15.331Z,100692.59
2023-05-06T03:02:17.756Z,100693.22
2023-05-06T03:03:22.229Z,100692.44
2023-05-06T03:04:24.511Z,100695.06
2023-05-06T03:05:26.955Z,100684.69
2023-05-06T03:06:29.195Z,100697.69
2023-05-06T03:07:31.903Z,100689.44
2023-05-06T03:08:34.112Z,100690.94
2023-05-06T03:09:36.967Z,100696.09
2023-05-06T03:10:39.148Z,100693.19
2023-05-06T03:11:41.800Z,100697.59
2023-05-06T03:12:44.139Z,100696.50
2023-05-06T03:13:46.744Z,100704.56
2023-05-06T03:14:49.503Z,100707.25
2023-05-06T03:15:54.034Z,100702.00
2023-05-06T03:16:56.906Z,100700.09
2023-05-06T03:18:00.215Z,100693.44
2023-05-06T03:19:04.186Z,100692.94
2023-05-06T03:20:08.801Z,100688.34
2023-05-06T03:21:14.170Z,100692.88
2023-05-06T03:22:17.882Z,100703.38
2023-05-06T03:23:21.571Z,100699.72
2023-05-06T03:24:24.470Z,100703.03
2023-05-06T03:25:27.080Z,100703.81
2023-05-06T03:26:30.535Z,100692.75
2023-05-06T03:27:33.302Z,100690.69
2023-05-06T03:28:44.208Z,100689.88
2023-05-06T03:29:47.578Z,100682.31
2023-05-06T03:30:51.312Z,100673.94
2023-05-06T03:31:56.216Z,100667.44
2023-05-06T03:33:02.437Z,100672.03
2023-05-06T03:34:07.122Z,100671.34
2023-05-06T03:35:11.582Z,100670.66
2023-05-06T03:36:16.471Z,100682.56
2023-05-06T03:37:21.200Z,100670.69
2023-05-06T03:38:27.933Z,100663.75
2023-05-06T03:39:36.184Z,100670.09
2023-05-06T03:40:38.939Z,100670.09
2023-05-06T03:41:41.757Z,100667.59
2023-05-06T03:42:45.116Z,100659.09
2023-05-06T03:43:47.974Z,100668.69
2023-05-06T03:44:53.359Z,100654.25
2023-05-06T03:45:56.164Z,100647.53
2023-05-06T03:46:58.818Z,100654.59
2023-05-06T03:48:01.523Z,100640.78
2023-05-06T03:49:05.964Z,100652.50
2023-05-06T03:50:08.773Z,100657.94
2023-05-06T03:51:12.540Z,100660.09
2023-05-06T03:52:14.788Z,100659.03
2023-05-06T03:53:17.393Z,100670.34
2023-05-06T03:54:22.530Z,100665.63
2023-05-06T03:55:25.070Z,100667.84
2023-05-06T03:56:27.470Z,100655.88
2023-05-06T03:57:31.282Z,100658.91
2023-05-06T03:58:34.234Z,100659.91
2023-05-06T03:59:37.695Z,100658.16
2023-05-06T04:00:41.917Z,100655.16
2023-05-06T04:01:44.403Z,100652.94
2023-05-06T04:02:48.773Z,100656.41
2023-05-06T04:03:57.835Z,100655.81
2023-05-06T04:05:01.407Z,100666.03
2023-05-06T04:06:03.985Z,100665.66
2023-05-06T04:07:06.371Z,100675.66
2023-05-06T04:08:08.534Z,100672.19
2023-05-06T04:09:11.248Z,100674.88
2023-05-06T04:10:15.093Z,100671.97
2023-05-06T04:11:20.591Z,100659.94
2023-05-06T04:12:24.200Z,100656.91
2023-05-06T04:13:26.457Z,100658.81
2023-05-06T04:14:29.102Z,100660.19
2023-05-06T04:15:34.605Z,100655.94
2023-05-06T04:16:39.048Z,100657.53
2023-05-06T04:17:41.309Z,100655.81
2023-05-06T04:18:44.083Z,100658.41
2023-05-06T04:19:49.561Z,100656.00
2023-05-06T04:20:51.969Z,100663.91
2023-05-06T04:21:54.246Z,100665.09
2023-05-06T04:22:56.425Z,100662.97
2023-05-06T04:23:59.118Z,100670.59
2023-05-06T04:25:09.013Z,100660.13
2023-05-06T04:26:13.239Z,100664.56
2023-05-06T04:27:17.376Z,100666.97
2023-05-06T04:28:21.989Z,100664.53
2023-05-06T04:29:27.063Z,100666.63
2023-05-06T04:30:34.137Z,100664.94
2023-05-06T04:31:37.337Z,100670.31
2023-05-06T04:32:43.299Z,100656.53
2023-05-06T04:33:45.891Z,100658.91
2023-05-06T04:34:53.444Z,100658.00
2023-05-06T04:35:56.209Z,100656.19
2023-05-06T04:37:00.332Z,100660.94
2023-05-06T04:38:09.860Z,100670.38
2023-05-06T04:39:16.248Z,100664.38
2023-05-06T04:40:18.992Z,100660.16
2023-05-06T04:41:24.206Z,100666.44
2023-05-06T04:42:26.582Z,100658.44
2023-05-06T04:43:39.863Z,100659.75
2023-05-06T04:44:48.874Z,100666.28
2023-05-06T04:45:54.493Z,100667.09
2023-05-06T04:47:01.758Z,100663.25
2023-05-06T04:48:04.383Z,100664.44
2023-05-06T04:49:07.691Z,100665.75
2023-05-06T04:50:10.943Z,100667.16
2023-05-06T04:51:13.341Z,100665.69
2023-05-06T04:52:16.392Z,100669.88
2023-05-06T04:53:18.738Z,100667.72
2023-05-06T04:54:21.789Z,100667.16
2023-05-06T04:55:23.977Z,100670.63
2023-05-06T04:56:28.539Z,100665.13
2023-05-06T04:57:32.299Z,100667.19
2023-05-06T04:58:34.862Z,100668.88
2023-05-06T04:59:37.278Z,100668.22
2023-05-06T05:00:39.862Z,100669.59
2023-05-06T05:01:42.158Z,100669.44
2023-05-06T05:02:46.897Z,100673.38
2023-05-06T05:03:51.542Z,100668.81
2023-05-06T05:04:55.803Z,100669.56
2023-05-06T05:05:58.657Z,100668.16
2023-05-06T05:07:02.234Z,100669.78
2023-05-06T05:08:06.131Z,100670.00
2023-05-06T05:09:12.159Z,100670.00
2023-05-06T05:10:18.029Z,100667.84
2023-05-06T05:11:21.232Z,100667.41
2023-05-06T05:12:24.224Z,100665.63
2023-05-06T05:13:28.081Z,100665.56
2023-05-06T05:14:31.547Z,100669.50
2023-05-06T05:15:34.484Z,100667.94
2023-05-06T05:16:37.118Z,100674.50
2023-05-06T05:17:40.047Z,100674.31
2023-05-06T05:18:42.518Z,100677.53
2023-05-06T05:19:52.899Z,100671.13
2023-05-06T05:20:55.627Z,100679.06
2023-05-06T05:21:59.370Z,100677.88
2023-05-06T05:23:01.705Z,100675.59
2023-05-06T05:24:04.283Z,100684.81
2023-05-06T05:25:08.424Z,100683.44
2023-05-06T05:26:11.330Z,100685.00
2023-05-06T05:27:15.012Z,100685.72
2023-05-06T05:28:17.859Z,100686.25
2023-05-06T05:29:20.030Z,100688.06
2023-05-06T05:30:23.202Z,100694.81
2023-05-06T05:31:25.727Z,100684.53
2023-05-06T05:32:28.391Z,100692.13
2023-05-06T05:33:31.140Z,100687.69
2023-05-06T05:34:34.072Z,100695.72
2023-05-06T05:35:36.800Z,100680.69
2023-05-06T05:36:39.519Z,100687.28
2023-05-06T05:37:45.059Z,100684.91
2023-05-06T05:38:47.826Z,100687.25
2023-05-06T05:39:50.942Z,100696.88
2023-05-06T05:40:53.866Z,100685.19
2023-05-06T05:41:56.388Z,100688.16
2023-05-06T05:42:59.130Z,100695.19
2023-05-06T05:44:09.647Z,100688.84
2023-05-06T05:45:12.109Z,100681.03
2023-05-06T05:46:15.350Z,100690.28
2023-05-06T05:47:19.032Z,100694.75
2023-05-06T05:48:21.745Z,100690.38
2023-05-06T05:49:23.988Z,100695.28
2023-05-06T05:50:28.510Z,100691.03
2023-05-06T05:51:33.263Z,100693.88
2023-05-06T05:52:38.548Z,100690.22
2023-05-06T05:53:40.925Z,100692.16
2023-05-06T05:54:43.539Z,100683.47
2023-05-06T05:55:45.705Z,100688.53
2023-05-06T05:56:48.386Z,100693.03
2023-05-06T05:57:51.312Z,100687.78
2023-05-06T05:58:55.324Z,100687.63
2023-05-06T05:59:58.379Z,100687.97
2023-05-06T06:01:01.738Z,100691.41
2023-05-06T06:02:04.104Z,100686.28
2023-05-06T06:03:06.850Z,100687.19
2023-05-06T06:04:14.575Z,100690.81
2023-05-06T06:05:17.233Z,100690.28
2023-05-06T06:06:19.724Z,100680.94
2023-05-06T06:07:22.112Z,100688.81
2023-05-06T06:08:24.521Z,100683.63
2023-05-06T06:09:28.115Z,100683.03
2023-05-06T06:10:30.791Z,100691.47
2023-05-06T06:11:36.068Z,100684.56
2023-05-06T06:12:38.418Z,100683.97
2023-05-06T06:13:40.803Z,100686.44
2023-05-06T06:14:47.919Z,100684.34
2023-05-06T06:15:53.162Z,100682.00
2023-05-06T06:16:56.420Z,100681.03
2023-05-06T06:17:58.914Z,100689.91
2023-05-06T06:19:03.279Z,100683.16
2023-05-06T06:20:07.432Z,100685.34
2023-05-06T06:21:09.635Z,100680.78
2023-05-06T06:22:12.028Z,100689.13
2023-05-06T06:23:14.748Z,100686.22
2023-05-06T06:24:16.978Z,100691.63
2023-05-06T06:25:19.233Z,100688.25
2023-05-06T06:26:21.652Z,100697.13
2023-05-06T06:27:24.268Z,100689.13
2023-05-06T06:28:26.937Z,100689.84
2023-05-06T06:29:29.552Z,100695.69
2023-05-06T06:30:31.801Z,100692.97
2023-05-06T06:31:34.944Z,100690.44
2023-05-06T06:32:48.122Z,100692.78
2023-05-06T06:33:50.544Z,100700.81
2023-05-06T06:34:53.386Z,100700.25
2023-05-06T06:35:55.686Z,100699.03
2023-05-06T06:36:57.854Z,100695.19
2023-05-06T06:38:00.488Z,100701.53
2023-05-06T06:39:02.750Z,100698.66
2023-05-06T06:40:05.889Z,100692.97
2023-05-06T06:41:09.853Z,100700.03
2023-05-06T06:42:12.291Z,100702.56
2023-05-06T06:43:24.951Z,100705.53
2023-05-06T06:44:34.740Z,100700.25
2023-05-06T06:45:37.430Z,100701.88
2023-05-06T06:46:39.741Z,100698.94
2023-05-06T06:47:42.247Z,100705.59
2023-05-06T06:48:44.432Z,100707.72
2023-05-06T06:49:46.791Z,100703.34
2023-05-06T06:50:49.126Z,100700.66
2023-05-06T06:51:52.117Z,100699.59
2023-05-06T06:52:54.355Z,100707.16
2023-05-06T06:53:56.925Z,100704.28
2023-05-06T06:54:59.147Z,100708.81
2023-05-06T06:56:01.905Z,100714.31
2023-05-06T06:57:04.467Z,100704.69
2023-05-06T06:58:06.808Z,100707.66
2023-05-06T06:59:09.030Z,100716.25
2023-05-06T07:00:11.889Z,100706.53
2023-05-06T07:01:14.335Z,100714.50
2023-05-06T07:02:16.536Z,100709.72
2023-05-06T07:03:19.802Z,100714.19
2023-05-06T07:04:22.125Z,100713.19
2023-05-06T07:05:26.847Z,100708.25
2023-05-06T07:06:29.257Z,100715.66
2023-05-06T07:07:31.425Z,100714.41
2023-05-06T07:08:33.855Z,100713.97
2023-05-06T07:09:37.013Z,100711.47
2023-05-06T07:10:41.631Z,100709.69
2023-05-06T07:11:43.817Z,100706.53
2023-05-06T07:12:46.687Z,100715.56
2023-05-06T07:13:48.894Z,100708.94
2023-05-06T07:14:51.341Z,100709.97
2023-05-06T07:15:53.581Z,100716.09
2023-05-06T07:16:56.173Z,100704.94
2023-05-06T07:17:58.508Z,100711.44
2023-05-06T07:19:01.411Z,100713.34
2023-05-06T07:20:03.829Z,100713.28
2023-05-06T07:21:06.209Z,100712.69
2023-05-06T07:22:08.620Z,100719.69
2023-05-06T07:23:10.932Z,100723.03
2023-05-06T07:24:13.169Z,100719.06
2023-05-06T07:25:20.488Z,100725.03
2023-05-06T07:26:22.683Z,100725.41
2023-05-06T07:27:25.370Z,100725.84
2023-05-06T07:28:27.601Z,100727.69
2023-05-06T07:29:30.054Z,100724.03
2023-05-06T07:30:32.612Z,100725.44
2023-05-06T07:31:34.889Z,100727.38
2023-05-06T07:32:37.263Z,100725.75
2023-05-06T07:33:39.747Z,100725.66
2023-05-06T07:34:42.110Z,100732.22
2023-05-06T07:35:44.421Z,100727.56
2023-05-06T07:36:46.820Z,100726.34
2023-05-06T07:37:49.331Z,100735.31
2023-05-06T07:38:51.613Z,100725.94
2023-05-06T07:39:53.978Z,100734.78
2023-05-06T07:40:57.188Z,100735.25
2023-05-06T07:41:59.738Z,100731.25
2023-05-06T07:43:02.965Z,100739.81
2023-05-06T07:44:06.139Z,100735.97
2023-05-06T07:45:08.994Z,100742.97
2023-05-06T07:46:11.798Z,100744.56
2023-05-06T07:47:27.283Z,100740.25
2023-05-06T07:48:30.432Z,100742.94
2023-05-06T07:49:34.182Z,100741.63
2023-05-06T07:50:36.710Z,100740.81
2023-05-06T07:51:39.142Z,100749.22
2023-05-06T07:52:41.425Z,100742.78
2023-05-06T07:53:43.647Z,100744.94
2023-05-06T07:54:46.046Z,100748.09
2023-05-06T07:55:48.481Z,100756.31
2023-05-06T07:56:50.800Z,100752.84
2023-05-06T07:57:52.969Z,100754.44
2023-05-06T07:58:55.211Z,100754.38
2023-05-06T07:59:58.773Z,100758.03
2023-05-06T08:01:01.067Z,100765.72
2023-05-06T08:02:03.437Z,100756.56
2023-05-06T08:03:05.861Z,100759.94
2023-05-06T08:04:09.062Z,100746.09
2023-05-06T08:05:11.840Z,100751.38
2023-05-06T08:06:14.256Z,100756.91
2023-05-06T08:07:16.627Z,100750.56
2023-05-06T08:08:19.828Z,100746.78
2023-05-06T08:09:23.256Z,100748.00
2023-05-06T08:10:25.866Z,100748.66
2023-05-06T08:11:28.143Z,100749.75
2023-05-06T08:12:30.594Z,100748.44
2023-05-06T08:13:33.572Z,100748.63
2023-05-06T08:14:36.100Z,100742.00
2023-05-06T08:15:39.141Z,100752.13
2023-05-06T08:16:41.846Z,100754.59
2023-05-06T08:17:44.208Z,100755.56
2023-05-06T08:18:46.409Z,100754.34
2023-05-06T08:19:48.993Z,100752.03
2023-05-06T08:20:54.315Z,100753.00
2023-05-06T08:21:56.746Z,100751.84
2023-05-06T08:23:01.002Z,100749.53
2023-05-06T08:24:03.400Z,100754.81
2023-05-06T08:25:06.268Z,100755.63
2023-05-06T08:26:08.652Z,100749.06
2023-05-06T08:27:11.060Z,100754.66
2023-05-06T08:28:13.389Z,100760.94
2023-05-06T08:29:15.942Z,100754.09
2023-05-06T08:30:18.233Z,100758.34
2023-05-06T08:31:20.447Z,100764.03
2023-05-06T08:32:23.071Z,100754.63
2023-05-06T08:33:25.333Z,100761.38
2023-05-06T08:34:28.150Z,100758.88
2023-05-06T08:35:30.684Z,100760.75
2023-05-06T08:36:32.942Z,100760.22
2023-05-06T08:37:35.111Z,100763.16
2023-05-06T08:38:37.309Z,100762.59
2023-05-06T08:39:39.504Z,100760.09
2023-05-06T08:40:43.787Z,100764.69
2023-05-06T08:41:48.554Z,100764.34
2023-05-06T08:42:51.127Z,100767.94
2023-05-06T08:43:54.806Z,100764.81
2023-05-06T08:44:58.487Z,100767.41
2023-05-06T08:46:00.725Z,100776.13
2023-05-06T08:47:04.424Z,100772.19
2023-05-06T08:48:07.044Z,100768.97
2023-05-06T08:49:10.094Z,100771.00
2023-05-06T08:50:12.711Z,100783.25
2023-05-06T08:51:15.452Z,100776.53
2023-05-06T08:52:18.673Z,100781.09
2023-05-06T08:53:21.448Z,100779.63
2023-05-06T08:54:26.650Z,100778.00
2023-05-06T08:55:31.004Z,100783.13
2023-05-06T08:56:33.846Z,100778.81
2023-05-06T08:57:37.255Z,100791.75
2023-05-06T08:58:44.587Z,100786.91
2023-05-06T08:59:47.784Z,100790.53
2023-05-06T09:00:51.476Z,100787.63
2023-05-06T09:01:53.746Z,100788.25
2023-05-06T09:02:56.228Z,100790.97
2023-05-06T09:03:59.685Z,100796.16
2023-05-06T09:05:03.140Z,100802.63
2023-05-06T09:06:05.457Z,100800.63
2023-05-06T09:07:08.353Z,100795.78
2023-05-06T09:08:11.677Z,100800.94
2023-05-06T09:09:15.059Z,100797.88
2023-05-06T09:10:19.250Z,100795.53
2023-05-06T09:11:29.340Z,100795.09
2023-05-06T09:12:31.489Z,100802.66
2023-05-06T09:13:33.860Z,100798.22
2023-05-06T09:14:36.237Z,100802.53
2023-05-06T09:15:43.102Z,100801.34
2023-05-06T09:16:47.141Z,100801.91
2023-05-06T09:17:49.553Z,100798.72
2023-05-06T09:18:51.824Z,100795.78
2023-05-06T09:19:57.181Z,100799.50
2023-05-06T09:21:00.886Z,100811.53
2023-05-06T09:22:03.805Z,100801.09
2023-05-06T09:23:08.391Z,100808.13
2023-05-06T09:24:11.964Z,100804.81
2023-05-06T09:25:14.263Z,100804.13
2023-05-06T09:26:16.989Z,100811.50
2023-05-06T09:27:21.615Z,100807.38
2023-05-06T09:28:23.788Z,100810.72
2023-05-06T09:29:26.124Z,100814.91
2023-05-06T09:30:28.466Z,100817.31
2023-05-06T09:31:31.383Z,100810.50
2023-05-06T09:32:37.352Z,100808.69
2023-05-06T09:33:41.824Z,100821.00
2023-05-06T09:34:46.402Z,100822.34
2023-05-06T09:35:49.924Z,100813.13
2023-05-06T09:36:52.766Z,100817.50
2023-05-06T09:37:56.709Z,100821.72
2023-05-06T09:38:58.942Z,100824.53
2023-05-06T09:40:01.754Z,100817.38
2023-05-06T09:41:04.641Z,100819.84
2023-05-06T09:42:07.216Z,100822.84
2023-05-06T09:43:10.794Z,100817.75
2023-05-06T09:44:13.000Z,100825.03
2023-05-06T09:45:16.185Z,100821.69
2023-05-06T09:46:19.688Z,100827.72
2023-05-06T09:47:24.107Z,100828.78
2023-05-06T09:48:32.076Z,100828.22
2023-05-06T09:49:34.321Z,100839.31
2023-05-06T09:50:36.956Z,100841.28
2023-05-06T09:51:41.523Z,100840.69
2023-05-06T09:52:48.431Z,100844.31
2023-05-06T09:53:51.983Z,100837.28
2023-05-06T09:54:54.969Z,100839.31
2023-05-06T09:55:59.106Z,100847.47
2023-05-06T09:57:03.741Z,100846.28
2023-05-06T09:58:08.339Z,100848.00
2023-05-06T09:59:12.081Z,100847.06
2023-05-06T10:00:15.478Z,100847.66
2023-05-06T10:01:32.736Z,100845.00
2023-05-06T10:02:42.996Z,100848.63
2023-05-06T10:03:46.280Z,100846.81
2023-05-06T10:04:50.310Z,100846.69
2023-05-06T10:05:57.591Z,100851.09
2023-05-06T10:07:00.943Z,100848.81
2023-05-06T10:08:07.179Z,100844.25
2023-05-06T10:09:11.090Z,100845.94
2023-05-06T10:10:14.433Z,100844.06
2023-05-06T10:11:22.950Z,100852.47
2023-05-06T10:12:26.385Z,100847.25
2023-05-06T10:13:30.520Z,100846.59
2023-05-06T10:14:32.788Z,100841.22
2023-05-06T10:15:35.168Z,100847.63
2023-05-06T10:16:40.203Z,100853.19
2023-05-06T10:17:45.434Z,100849.66
2023-05-06T10:18:49.826Z,100850.50
2023-05-06T10:19:57.017Z,100849.50
2023-05-06T10:21:00.742Z,100844.50
2023-05-06T10:22:28.884Z,100844.34
2023-05-06T10:23:52.166Z,100849.47
2023-05-06T10:24:59.897Z,100852.94
2023-05-06T10:26:10.286Z,100848.66
2023-05-06T10:27:13.731Z,100848.41
2023-05-06T10:28:23.038Z,100849.09
2023-05-06T10:29:36.138Z,100844.91
2023-05-06T10:30:40.847Z,100839.50
2023-05-06T10:32:04.272Z,100840.88
2023-05-06T10:33:12.186Z,100840.31
2023-05-06T10:34:16.432Z,100841.13
2023-05-06T10:35:41.196Z,100841.19
2023-05-06T10:36:46.005Z,100852.44
2023-05-06T10:37:50.708Z,100844.19
2023-05-06T10:38:56.524Z,100842.19
2023-05-06T10:40:00.129Z,100845.66
2023-05-06T10:41:02.794Z,100836.28
2023-05-06T10:42:07.162Z,100840.88
2023-05-06T10:43:34.427Z,100840.50
2023-05-06T10:45:05.889Z,100847.56
2023-05-06T10:46:16.935Z,100851.16
2023-05-06T10:47:20.022Z,100849.88
2023-05-06T10:48:22.239Z,100849.56
2023-05-06T10:49:24.821Z,100849.38
2023-05-06T10:50:29.321Z,100849.94
2023-05-06T10:51:41.888Z,100852.25
2023-05-06T10:52:45.540Z,100851.84
2023-05-06T10:54:02.539Z,100841.81
2023-05-06T10:55:30.528Z,100849.41
2023-05-06T10:56:58.973Z,100845.09
2023-05-06T10:58:11.993Z,100842.25
2023-05-06T10:59:14.932Z,100851.75
2023-05-06T11:00:18.921Z,100840.59
2023-05-06T11:01:22.937Z,100848.63
2023-05-06T11:02:26.284Z,100850.53
2023-05-06T11:03:32.087Z,100845.31
2023-05-06T11:04:34.519Z,100854.28
2023-05-06T11:05:49.987Z,100844.06
2023-05-06T11:06:53.251Z,100850.84
2023-05-06T11:08:09.785Z,100847.31
2023-05-06T11:09:23.239Z,100844.41
2023-05-06T11:10:33.191Z,100846.13
2023-05-06T11:11:54.579Z,100847.50
2023-05-06T11:12:57.133Z,100845.63
2023-05-06T11:14:13.151Z,100849.31
2023-05-06T11:15:25.307Z,100854.06
2023-05-06T11:16:47.047Z,100854.81
2023-05-06T11:17:49.341Z,100853.94
2023-05-06T11:18:52.177Z,100857.50
2023-05-06T11:20:23.334Z,100863.66
2023-05-06T11:21:31.572Z,100859.47
2023-05-06T11:22:41.018Z,100868.13
2023-05-06T11:23:43.436Z,100876.13
2023-05-06T11:24:45.726Z,100874.06
2023-05-06T11:25:47.921Z,100876.69
2023-05-06T11:26:51.478Z,100882.16
2023-05-06T11:27:56.014Z,100872.97
2023-05-06T11:29:01.707Z,100873.22
2023-05-06T11:30:05.261Z,100875.47
2023-05-06T11:31:08.563Z,100880.72
2023-05-06T11:32:23.154Z,100880.78
2023-05-06T11:33:31.698Z,100879.16
2023-05-06T11:34:35.447Z,100868.03
2023-05-06T11:35:38.099Z,100877.78
2023-05-06T11:36:50.180Z,100875.91
2023-05-06T11:37:52.452Z,100872.97
2023-05-06T11:38:56.270Z,100879.22
2023-05-06T11:39:58.766Z,100878.16
2023-05-06T11:41:01.036Z,100867.84
2023-05-06T11:42:06.204Z,100876.47
2023-05-06T11:43:15.922Z,100877.94
2023-05-06T11:44:29.429Z,100881.25
2023-05-06T11:45:45.425Z,100880.50
2023-05-06T11:46:47.896Z,100883.38
2023-05-06T11:47:55.183Z,100885.13
2023-05-06T11:48:57.607Z,100893.88
2023-05-06T11:50:07.418Z,100887.28
2023-05-06T11:51:09.963Z,100891.72
2023-05-06T11:52:13.367Z,100897.69
2023-05-06T11:53:20.126Z,100888.78
2023-05-06T11:54:23.037Z,100897.03
2023-05-06T11:55:25.544Z,100891.56
2023-05-06T11:56:28.184Z,100893.63
2023-05-06T11:57:30.407Z,100900.66
2023-05-06T11:58:33.175Z,100904.16
2023-05-06T11:59:40.872Z,100908.47
2023-05-06T12:00:51.941Z,100902.25
2023-05-06T12:01:54.440Z,100908.22
2023-05-06T12:02:57.173Z,100921.72
2023-05-06T12:03:59.905Z,100919.09
2023-05-06T12:05:03.846Z,100916.22
2023-05-06T12:06:06.222Z,100917.78
2023-05-06T12:07:10.180Z,100920.41
2023-05-06T12:08:23.406Z,100924.13
2023-05-06T12:09:28.829Z,100933.09
2023-05-06T12:10:31.192Z,100938.19
2023-05-06T12:11:35.032Z,100932.63
2023-05-06T12:12:37.391Z,100937.75
2023-05-06T12:13:40.736Z,100942.09
2023-05-06T12:14:44.405Z,100943.94
2023-05-06T12:15:48.430Z,100940.13
2023-05-06T12:16:50.731Z,100939.63